createdAt,value
2022-12-13T00:00:00.000Z,30.49
2022-12-13T00:15:00.000Z,34.79
2022-12-13T00:30:00.000Z,29.13
2022-12-13T00:45:00.000Z,27.45
2022-12-13T01:00:00.000Z,27.58
2022-12-13T01:15:00.000Z,29.39
2022-12-13T01:30:00.000Z,31.92
2022-12-13T01:45:00.000Z,29.33
2022-12-13T02:00:00.000Z,29.48
2022-12-13T02:15:00.000Z,27.78
2022-12-13T02:30:00.000Z,26.74
2022-12-13T02:45:00.000Z,26.87
2022-12-13T03:00:00.000Z,26.68
2022-12-13T03:15:00.000Z,25.7
2022-12-13T03:30:00.000Z,23.6
2022-12-13T03:45:00.000Z,27.16
2022-12-13T04:00:00.000Z,29.6
2022-12-13T04:15:00.000Z,29.92
2022-12-13T04:30:00.000Z,28.59
2022-12-13T04:45:00.000Z,31.27
2022-12-13T05:00:00.000Z,35.53
2022-12-13T05:15:00.000Z,31.13
2022-12-13T05:30:00.000Z,37.45
2022-12-13T06:00:00.000Z,40
2022-12-13T06:00:00.000Z,40.99
2022-12-13T06:15:00.000Z,41.98
2022-12-13T06:30:00.000Z,51.15
2022-12-13T06:45:00.000Z,51.35
2022-12-13T07:00:00.000Z,45.28
2022-12-13T07:15:00.000Z,44.59
2022-12-13T07:30:00.000Z,43.38
2022-12-13T07:45:00.000Z,43.36
2022-12-13T08:00:00.000Z,56.58
2022-12-13T08:15:00.000Z,47.99
2022-12-13T08:30:00.000Z,44.26
2022-12-13T08:45:00.000Z,44.31
2022-12-13T09:00:00.000Z,42.58
2022-12-13T09:15:00.000Z,44.51
2022-12-13T09:30:00.000Z,48.51
2022-12-13T09:45:00.000Z,40.28
2022-12-13T10:00:00.000Z,33.79
2022-12-13T10:15:00.000Z,27.94
2022-12-13T10:30:00.000Z,28.93
2022-12-13T10:45:00.000Z,40.52
2022-12-13T11:00:00.000Z,40.68
2022-12-13T11:15:00.000Z,36.95
2022-12-13T11:30:00.000Z,37.07
2022-12-13T11:45:00.000Z,30.64
2022-12-13T12:00:00.000Z,29.61
2022-12-13T12:15:00.000Z,31.99
2022-12-13T12:30:00.000Z,33.09
2022-12-13T12:45:00.000Z,32.56
2022-12-13T13:00:00.000Z,34.14
2022-12-13T13:15:00.000Z,33.47
2022-12-13T13:30:00.000Z,34.01
2022-12-13T13:45:00.000Z,32.91
2022-12-13T14:00:00.000Z,38.94
2022-12-13T14:15:00.000Z,33.85
2022-12-13T14:30:00.000Z,35.44
2022-12-13T14:45:00.000Z,34.51
2022-12-13T15:00:00.000Z,36.95
2022-12-13T15:15:00.000Z,39.91
2022-12-13T15:30:00.000Z,46.58
2022-12-13T15:45:00.000Z,39.84
2022-12-13T16:00:00.000Z,42.6
2022-12-13T16:15:00.000Z,48.02
2022-12-13T16:30:00.000Z,60.2
2022-12-13T16:45:00.000Z,55.01
2022-12-13T17:00:00.000Z,42.42
2022-12-13T17:15:00.000Z,43.35
2022-12-13T17:30:00.000Z,50.05
2022-12-13T17:45:00.000Z,51.95
2022-12-13T18:00:00.000Z,57.58
2022-12-13T18:15:00.000Z,60.25
2022-12-13T18:30:00.000Z,59.93
2022-12-13T18:45:00.000Z,56.04
2022-12-13T19:00:00.000Z,64.24
2022-12-13T19:15:00.000Z,74.75
2022-12-13T19:30:00.000Z,66.81
2022-12-13T19:45:00.000Z,75.14
2022-12-13T20:00:00.000Z,71.19
2022-12-13T20:15:00.000Z,74.64
2022-12-13T20:30:00.000Z,70.29
2022-12-13T20:45:00.000Z,69.55
2022-12-13T21:00:00.000Z,76.35
2022-12-13T21:15:00.000Z,91.25
2022-12-13T21:30:00.000Z,83.15
2022-12-13T21:45:00.000Z,58.42
2022-12-13T22:00:00.000Z,59.21
2022-12-13T22:15:00.000Z,59.75
2022-12-13T22:30:00.000Z,46.93
2022-12-13T22:45:00.000Z,45.47
2022-12-13T23:00:00.000Z,54.19
2022-12-13T23:15:00.000Z,50.36
2022-12-13T23:30:00.000Z,52.68
2022-12-13T23:45:00.000Z,51.41
